Terminal Aerodrome Forecast
Issued by NWS Greer, SC

Home | Current Version | Previous Version | Text Only | Print | Product List | Glossary On
Versions: 1 2 3 4 5 6 7 8 9 10 11 12 13 14
000
FTUS42 KGSP 211731
TAFAVL
TAF
KAVL 211731Z 2118/2218 16005KT P6SM VCSH FEW050 FEW250
     FM220400 VRB02KT P6SM FEW250
     FM221100 00000KT 1 1/2SM BR SCT003
     FM221300 VRB02KT P6SM FEW250
     FM221500 31003KT P6SM FEW035
     FM221700 23004KT P6SM SCT040=

USA.gov is the U.S. government's official web portal to all federal, state and local government web resources and services.